createdAt,value
2018-07-14T00:00:58.580Z,18.20
2018-07-14T00:03:27.983Z,18.20
2018-07-14T00:05:56.674Z,18.20
2018-07-14T00:08:25.245Z,18.10
2018-07-14T00:10:53.973Z,18.10
2018-07-14T00:13:22.613Z,18.10
2018-07-14T00:15:51.372Z,18.10
2018-07-14T00:18:20.005Z,18.00
2018-07-14T00:20:48.777Z,18.10
2018-07-14T00:23:17.476Z,18.10
2018-07-14T00:25:51.264Z,18.00
2018-07-14T00:28:19.897Z,18.00
2018-07-14T00:30:48.558Z,18.10
2018-07-14T00:33:17.222Z,18.10
2018-07-14T00:35:45.793Z,18.10
2018-07-14T00:38:14.368Z,18.00
2018-07-14T00:40:43.018Z,17.80
2018-07-14T00:43:11.640Z,17.70
2018-07-14T00:45:40.370Z,17.50
2018-07-14T00:48:09.065Z,17.50
2018-07-14T00:50:37.864Z,17.40
2018-07-14T00:53:06.737Z,17.50
2018-07-14T00:55:35.390Z,17.50
2018-07-14T00:58:04.079Z,17.60
2018-07-14T01:00:32.792Z,17.50
2018-07-14T01:03:01.513Z,17.50
2018-07-14T01:05:30.274Z,17.40
2018-07-14T01:07:59.162Z,17.30
2018-07-14T01:10:27.818Z,17.30
2018-07-14T01:12:56.521Z,17.20
2018-07-14T01:15:25.234Z,17.20
2018-07-14T01:17:53.960Z,17.10
2018-07-14T01:20:22.514Z,17.00
2018-07-14T01:22:51.186Z,16.90
2018-07-14T01:25:19.784Z,16.90
2018-07-14T01:27:48.468Z,17.00
2018-07-14T01:30:17.098Z,17.00
2018-07-14T01:32:45.697Z,17.00
2018-07-14T01:35:14.374Z,17.00
2018-07-14T01:37:42.993Z,17.00
2018-07-14T01:40:11.685Z,17.10
2018-07-14T01:42:40.290Z,17.00
2018-07-14T01:45:09.310Z,17.00
2018-07-14T01:47:37.896Z,16.90
2018-07-14T01:50:06.520Z,16.80
2018-07-14T01:52:35.246Z,16.70
2018-07-14T01:55:03.912Z,16.70
2018-07-14T01:57:32.578Z,16.70
2018-07-14T02:00:01.282Z,16.60
2018-07-14T02:02:29.852Z,16.60
2018-07-14T02:04:58.540Z,16.50
2018-07-14T02:07:27.141Z,16.50
2018-07-14T02:09:55.813Z,16.50
2018-07-14T02:12:24.533Z,16.50
2018-07-14T02:14:53.157Z,16.50
2018-07-14T02:17:21.784Z,16.50
2018-07-14T02:19:50.408Z,16.50
2018-07-14T02:22:19.150Z,16.50
2018-07-14T02:24:47.836Z,16.50
2018-07-14T02:27:16.546Z,16.50
2018-07-14T02:29:45.209Z,16.60
2018-07-14T02:32:13.912Z,16.60
2018-07-14T02:34:42.534Z,16.60
2018-07-14T02:37:11.184Z,16.60
2018-07-14T02:39:39.854Z,16.60
2018-07-14T02:42:08.796Z,16.50
2018-07-14T02:44:37.487Z,16.50
2018-07-14T02:47:06.174Z,16.50
2018-07-14T02:49:34.801Z,16.40
2018-07-14T02:52:03.501Z,16.40
2018-07-14T02:54:34.888Z,16.30
2018-07-14T02:57:03.631Z,16.20
2018-07-14T02:59:32.220Z,16.20
2018-07-14T03:02:00.870Z,16.20
2018-07-14T03:04:29.565Z,16.10
2018-07-14T03:06:58.282Z,16.00
2018-07-14T03:09:26.946Z,16.00
2018-07-14T03:11:55.631Z,16.00
2018-07-14T03:14:24.373Z,16.00
2018-07-14T03:16:53.093Z,16.00
2018-07-14T03:19:21.782Z,16.00
2018-07-14T03:21:50.435Z,16.00
2018-07-14T03:24:19.079Z,16.00
2018-07-14T03:26:47.799Z,16.00
2018-07-14T03:29:16.490Z,16.00
2018-07-14T03:31:45.173Z,16.00
2018-07-14T03:34:13.837Z,15.90
2018-07-14T03:36:42.510Z,15.80
2018-07-14T03:39:11.152Z,15.80
2018-07-14T03:41:39.885Z,15.70
2018-07-14T03:44:08.654Z,15.60
2018-07-14T03:46:37.306Z,15.60
2018-07-14T03:49:05.993Z,15.70
2018-07-14T03:51:34.659Z,15.70
2018-07-14T03:54:03.475Z,15.70
2018-07-14T03:56:32.225Z,15.60
2018-07-14T03:59:00.985Z,15.60
2018-07-14T04:01:29.746Z,15.60
2018-07-14T04:03:58.453Z,15.50
2018-07-14T04:06:27.161Z,15.50
2018-07-14T04:08:55.944Z,15.50
2018-07-14T04:11:24.570Z,15.50
2018-07-14T04:13:53.277Z,15.50
2018-07-14T04:16:21.980Z,15.50
2018-07-14T04:18:50.654Z,15.50
2018-07-14T04:21:19.314Z,15.40
2018-07-14T04:23:47.973Z,15.40
2018-07-14T04:26:16.641Z,15.50
2018-07-14T04:28:45.330Z,15.60
2018-07-14T04:31:14.029Z,15.60
2018-07-14T04:33:42.825Z,15.60
2018-07-14T04:36:11.485Z,15.60
2018-07-14T04:38:40.186Z,15.60
2018-07-14T04:41:08.896Z,15.60
2018-07-14T04:43:37.645Z,15.60
2018-07-14T04:46:06.374Z,15.70
2018-07-14T04:48:35.065Z,15.80
2018-07-14T04:51:03.699Z,16.00
2018-07-14T04:53:32.394Z,16.10
2018-07-14T04:56:01.158Z,16.30
2018-07-14T04:58:29.941Z,16.40
2018-07-14T05:00:58.685Z,16.50
2018-07-14T05:03:27.514Z,16.60
2018-07-14T05:05:56.265Z,16.70
2018-07-14T05:08:25.121Z,16.80
2018-07-14T05:10:53.814Z,16.90
2018-07-14T05:13:22.507Z,16.90
2018-07-14T05:15:51.198Z,16.90
2018-07-14T05:18:19.933Z,17.00
2018-07-14T05:20:48.650Z,17.10
2018-07-14T05:23:17.363Z,17.20
2018-07-14T05:25:46.125Z,17.30
2018-07-14T05:28:14.775Z,17.40
2018-07-14T05:30:43.585Z,17.40
2018-07-14T05:33:12.259Z,17.50
2018-07-14T05:35:40.938Z,17.60
2018-07-14T05:38:09.953Z,17.60
2018-07-14T05:40:38.609Z,17.70
2018-07-14T05:43:07.282Z,17.80
2018-07-14T05:45:35.981Z,17.90
2018-07-14T05:48:04.677Z,18.00
2018-07-14T05:50:33.443Z,18.00
2018-07-14T05:53:02.225Z,18.00
2018-07-14T05:55:30.881Z,18.10
2018-07-14T05:57:59.549Z,18.20
2018-07-14T06:00:28.337Z,18.20
2018-07-14T06:02:57.075Z,18.30
2018-07-14T06:05:25.771Z,18.40
2018-07-14T06:07:54.410Z,18.50
2018-07-14T06:10:23.121Z,18.60
2018-07-14T06:12:51.805Z,18.80
2018-07-14T06:15:20.453Z,19.00
2018-07-14T06:17:49.061Z,19.10
2018-07-14T06:20:17.658Z,19.20
2018-07-14T06:22:46.377Z,19.30
2018-07-14T06:25:15.030Z,19.40
2018-07-14T06:27:43.741Z,19.50
2018-07-14T06:30:15.369Z,19.60
2018-07-14T06:32:44.127Z,19.80
2018-07-14T06:35:12.797Z,19.80
2018-07-14T06:37:41.438Z,19.90
2018-07-14T06:40:11.424Z,20.00
2018-07-14T06:42:40.146Z,20.10
2018-07-14T06:45:08.893Z,20.20
2018-07-14T06:47:37.578Z,20.30
2018-07-14T06:50:06.213Z,20.50
2018-07-14T06:52:34.898Z,20.60
2018-07-14T06:55:03.633Z,20.80
2018-07-14T06:57:32.423Z,21.00
2018-07-14T07:00:01.050Z,21.10
2018-07-14T07:02:29.715Z,21.40
2018-07-14T07:04:58.385Z,21.60
2018-07-14T07:07:27.086Z,21.90
2018-07-14T07:09:55.787Z,22.10
2018-07-14T07:12:24.440Z,22.50
2018-07-14T07:14:53.101Z,22.70
2018-07-14T07:17:21.790Z,23.00
2018-07-14T07:19:50.484Z,23.10
2018-07-14T07:22:19.302Z,23.40
2018-07-14T07:24:48.076Z,23.70
2018-07-14T07:30:29.869Z,24.20
2018-07-14T07:32:58.604Z,24.50
2018-07-14T07:35:27.253Z,24.90
2018-07-14T07:37:56.063Z,25.10
2018-07-14T07:40:24.714Z,25.40
2018-07-14T07:42:53.445Z,25.70
2018-07-14T07:45:22.081Z,25.70
2018-07-14T07:47:50.783Z,25.80
2018-07-14T07:50:19.433Z,26.00
2018-07-14T07:52:48.105Z,26.10
2018-07-14T07:55:26.944Z,26.10
2018-07-14T07:57:56.501Z,26.20
2018-07-14T08:00:25.214Z,26.40
2018-07-14T08:02:53.946Z,26.70
2018-07-14T08:05:22.695Z,26.90
2018-07-14T08:07:51.415Z,27.20
2018-07-14T08:10:20.093Z,27.50
2018-07-14T08:12:48.825Z,27.70
2018-07-14T08:15:17.456Z,27.50
2018-07-14T08:17:46.297Z,27.60
2018-07-14T08:20:14.901Z,27.80
2018-07-14T08:22:43.621Z,27.90
2018-07-14T08:25:12.300Z,28.00
2018-07-14T08:27:41.017Z,28.10
2018-07-14T08:30:09.774Z,27.90
2018-07-14T08:32:38.396Z,28.20
2018-07-14T08:35:07.451Z,28.50
2018-07-14T08:37:36.160Z,28.70
2018-07-14T08:40:04.918Z,28.50
2018-07-14T08:42:33.626Z,28.60
2018-07-14T08:45:02.181Z,29.10
2018-07-14T08:47:30.917Z,29.40
2018-07-14T08:49:59.473Z,29.90
2018-07-14T08:52:28.067Z,30.10
2018-07-14T08:54:56.640Z,30.10
2018-07-14T08:57:25.398Z,30.10
2018-07-14T08:59:54.027Z,30.40
2018-07-14T09:02:23.501Z,30.40
2018-07-14T09:04:52.139Z,30.40
2018-07-14T09:07:20.736Z,30.70
2018-07-14T09:09:49.398Z,30.80
2018-07-14T09:12:18.006Z,30.80
2018-07-14T09:14:46.826Z,30.80
2018-07-14T09:17:15.485Z,31.10
2018-07-14T09:19:46.372Z,31.30
2018-07-14T09:22:15.026Z,31.70
2018-07-14T09:24:44.957Z,31.90
2018-07-14T09:27:13.608Z,32.40
2018-07-14T09:29:42.238Z,32.80
2018-07-14T09:32:10.882Z,32.80
2018-07-14T09:34:39.553Z,32.70
2018-07-14T09:37:08.261Z,32.60
2018-07-14T09:39:37.064Z,32.50
2018-07-14T09:42:05.710Z,32.80
2018-07-14T09:44:34.335Z,33.10
2018-07-14T09:47:02.926Z,33.50
2018-07-14T09:49:31.502Z,33.90
2018-07-14T09:52:00.078Z,34.00
2018-07-14T09:54:28.746Z,34.30
2018-07-14T09:56:57.340Z,34.70
2018-07-14T09:59:25.914Z,34.80
2018-07-14T10:01:54.477Z,34.70
2018-07-14T10:04:23.149Z,34.90
2018-07-14T10:06:51.778Z,34.90
2018-07-14T10:09:20.431Z,35.10
2018-07-14T10:11:50.306Z,35.40
2018-07-14T10:14:18.833Z,35.30
2018-07-14T10:16:47.433Z,35.10
2018-07-14T10:19:15.974Z,35.70
2018-07-14T10:21:44.570Z,36.30
2018-07-14T10:24:13.176Z,36.70
2018-07-14T10:26:41.672Z,37.00
2018-07-14T10:29:10.312Z,37.20
2018-07-14T10:31:38.793Z,37.10
2018-07-14T10:34:07.524Z,36.70
2018-07-14T10:36:36.075Z,37.20
2018-07-14T10:39:05.525Z,37.30
2018-07-14T10:41:34.171Z,37.50
2018-07-14T10:44:02.799Z,38.00
2018-07-14T10:46:31.336Z,37.60
2018-07-14T10:49:00.025Z,38.00
2018-07-14T10:51:28.686Z,38.10
2018-07-14T10:53:57.436Z,38.20
2018-07-14T10:56:26.138Z,38.30
2018-07-14T10:58:54.717Z,38.70
2018-07-14T11:01:23.327Z,38.70
2018-07-14T11:03:52.016Z,38.30
2018-07-14T11:06:20.654Z,37.90
2018-07-14T11:08:49.232Z,38.20
2018-07-14T11:11:17.784Z,38.60
2018-07-14T11:13:46.470Z,38.70
2018-07-14T11:16:15.165Z,38.60
2018-07-14T11:18:43.772Z,38.50
2018-07-14T11:21:12.393Z,38.70
2018-07-14T11:23:41.097Z,38.30
2018-07-14T11:26:09.629Z,38.70
2018-07-14T11:28:38.276Z,38.40
2018-07-14T11:31:06.914Z,38.00
2018-07-14T11:33:35.500Z,38.10
2018-07-14T11:36:04.215Z,37.10
2018-07-14T11:38:32.770Z,36.30
2018-07-14T11:41:01.393Z,36.20
2018-07-14T11:43:29.978Z,36.80
2018-07-14T11:45:58.527Z,37.30
2018-07-14T11:48:27.102Z,37.30
2018-07-14T11:50:55.676Z,37.90
2018-07-14T11:53:24.276Z,38.50
2018-07-14T11:55:52.861Z,38.60
2018-07-14T11:58:21.388Z,38.30
2018-07-14T12:00:49.923Z,37.30
2018-07-14T12:03:18.520Z,36.40
2018-07-14T12:05:47.102Z,35.80
2018-07-14T12:08:15.733Z,35.30
2018-07-14T12:10:44.324Z,34.90
2018-07-14T12:13:12.893Z,35.10
2018-07-14T12:15:41.786Z,35.70
2018-07-14T12:18:10.883Z,36.60
2018-07-14T12:20:39.393Z,36.90
2018-07-14T12:23:08.087Z,37.60
2018-07-14T12:25:36.569Z,38.00
2018-07-14T12:28:05.130Z,38.70
2018-07-14T12:30:33.768Z,39.00
2018-07-14T12:33:02.408Z,38.40
2018-07-14T12:35:31.067Z,37.20
2018-07-14T12:37:59.702Z,36.20
2018-07-14T12:40:28.529Z,35.80
2018-07-14T12:42:58.262Z,36.40
2018-07-14T12:45:26.974Z,37.20
2018-07-14T12:47:55.641Z,37.80
2018-07-14T12:50:24.341Z,36.00
2018-07-14T12:52:54.011Z,34.90
2018-07-14T12:55:39.228Z,34.50
2018-07-14T12:58:08.001Z,34.50
2018-07-14T13:00:36.697Z,34.60
2018-07-14T13:03:05.389Z,34.80
2018-07-14T13:05:33.931Z,35.30
2018-07-14T13:08:02.523Z,36.10
2018-07-14T13:10:31.090Z,36.70
2018-07-14T13:12:59.793Z,37.40
2018-07-14T13:15:28.853Z,37.40
2018-07-14T13:17:57.482Z,37.90
2018-07-14T13:20:26.113Z,38.50
2018-07-14T13:22:55.180Z,39.30
2018-07-14T13:25:24.050Z,39.90
2018-07-14T13:27:52.784Z,39.30
2018-07-14T13:30:21.381Z,38.30
2018-07-14T13:32:49.950Z,36.80
2018-07-14T13:35:18.894Z,35.90
2018-07-14T13:37:47.490Z,35.30
2018-07-14T13:40:16.121Z,35.00
2018-07-14T13:42:46.313Z,34.70
2018-07-14T13:45:15.842Z,34.50
2018-07-14T13:47:44.616Z,34.30
2018-07-14T13:50:13.410Z,34.40
2018-07-14T13:52:45.389Z,35.50
2018-07-14T13:55:14.057Z,37.00
2018-07-14T13:57:42.782Z,38.40
2018-07-14T14:00:11.477Z,38.60
2018-07-14T14:02:40.089Z,38.10
2018-07-14T14:05:08.746Z,37.80
2018-07-14T14:07:37.429Z,37.50
2018-07-14T14:10:06.128Z,37.70
2018-07-14T14:12:34.779Z,37.50
2018-07-14T14:15:03.482Z,37.00
2018-07-14T14:17:32.052Z,37.10
2018-07-14T14:20:00.822Z,37.40
2018-07-14T14:22:29.377Z,38.40
2018-07-14T14:24:57.982Z,39.40
2018-07-14T14:27:26.562Z,39.20
2018-07-14T14:29:55.143Z,38.80
2018-07-14T14:32:23.685Z,39.60
2018-07-14T14:34:52.324Z,39.80
2018-07-14T14:37:21.022Z,40.50
2018-07-14T14:39:49.742Z,41.30
2018-07-14T14:42:18.374Z,41.20
2018-07-14T14:44:47.145Z,41.10
2018-07-14T14:47:15.653Z,41.50
2018-07-14T14:49:44.184Z,42.10
2018-07-14T14:52:12.764Z,42.90
2018-07-14T14:54:41.415Z,43.20
2018-07-14T14:57:09.987Z,43.70
2018-07-14T14:59:38.546Z,43.50
2018-07-14T15:02:07.410Z,43.50
2018-07-14T15:04:35.997Z,43.90
2018-07-14T15:07:04.567Z,44.50
2018-07-14T15:12:26.126Z,45.60
2018-07-14T15:14:54.700Z,45.90
2018-07-14T15:17:23.217Z,46.10
2018-07-14T15:19:51.769Z,45.50
2018-07-14T15:22:20.263Z,45.30
2018-07-14T15:24:48.858Z,45.30
2018-07-14T15:27:17.418Z,45.40
2018-07-14T15:29:46.097Z,44.60
2018-07-14T15:32:14.866Z,42.90
2018-07-14T15:34:43.493Z,41.30
2018-07-14T15:37:12.156Z,40.00
2018-07-14T15:39:40.734Z,38.10
2018-07-14T15:42:09.318Z,36.80
2018-07-14T15:44:37.885Z,37.50
2018-07-14T15:47:06.832Z,38.40
2018-07-14T15:49:35.388Z,39.20
2018-07-14T15:52:03.947Z,40.30
2018-07-14T15:54:32.548Z,40.80
2018-07-14T15:57:01.239Z,40.90
2018-07-14T15:59:29.905Z,41.00
2018-07-14T16:01:58.544Z,40.00
2018-07-14T16:04:27.265Z,39.80
2018-07-14T16:06:55.886Z,40.60
2018-07-14T16:09:24.429Z,41.30
2018-07-14T16:11:53.041Z,41.60
2018-07-14T16:14:21.643Z,41.20
2018-07-14T16:16:50.164Z,40.40
2018-07-14T16:19:18.769Z,40.20
2018-07-14T16:21:47.504Z,40.70
2018-07-14T16:24:16.380Z,41.20
2018-07-14T16:26:45.014Z,41.70
2018-07-14T16:29:13.642Z,42.10
2018-07-14T16:31:42.232Z,41.60
2018-07-14T16:34:10.828Z,41.10
2018-07-14T16:36:39.393Z,41.00
2018-07-14T16:39:09.097Z,39.80
2018-07-14T16:41:37.835Z,39.60
2018-07-14T16:44:06.506Z,40.20
2018-07-14T16:46:35.114Z,40.50
2018-07-14T16:49:04.292Z,41.00
2018-07-14T16:51:33.769Z,41.40
2018-07-14T16:54:02.572Z,41.60
2018-07-14T16:56:31.888Z,41.70
2018-07-14T16:59:00.664Z,41.10
2018-07-14T17:01:29.249Z,40.20
2018-07-14T17:03:57.834Z,39.20
2018-07-14T17:06:26.426Z,38.00
2018-07-14T17:08:55.141Z,36.70
2018-07-14T17:11:23.736Z,35.60
2018-07-14T17:13:54.431Z,35.10
2018-07-14T17:16:23.032Z,35.20
2018-07-14T17:18:51.608Z,36.10
2018-07-14T17:21:20.248Z,37.20
2018-07-14T17:23:48.921Z,38.00
2018-07-14T17:26:17.642Z,38.60
2018-07-14T17:28:46.326Z,39.10
2018-07-14T17:31:14.962Z,39.60
2018-07-14T17:33:43.530Z,39.40
2018-07-14T17:36:12.228Z,39.40
2018-07-14T17:38:40.853Z,39.30
2018-07-14T17:41:09.549Z,39.00
2018-07-14T17:43:38.194Z,38.20
2018-07-14T17:46:06.782Z,37.80
2018-07-14T17:48:35.411Z,37.60
2018-07-14T17:51:04.078Z,37.40
2018-07-14T17:53:32.693Z,37.10
2018-07-14T17:56:01.326Z,37.10
2018-07-14T17:58:30.068Z,37.60
2018-07-14T18:01:04.853Z,37.90
2018-07-14T18:03:33.400Z,38.00
2018-07-14T18:06:02.016Z,38.30
2018-07-14T18:08:30.634Z,38.40
2018-07-14T18:10:59.152Z,38.10
2018-07-14T18:13:27.732Z,37.30
2018-07-14T18:15:56.332Z,36.70
2018-07-14T18:18:24.938Z,36.10
2018-07-14T18:20:53.556Z,35.90
2018-07-14T18:23:22.087Z,35.80
2018-07-14T18:25:50.671Z,35.60
2018-07-14T18:28:19.306Z,35.40
2018-07-14T18:30:47.874Z,35.00
2018-07-14T18:33:16.489Z,34.40
2018-07-14T18:35:45.062Z,34.00
2018-07-14T18:38:13.665Z,33.50
2018-07-14T18:40:42.313Z,33.10
2018-07-14T18:43:10.947Z,32.40
2018-07-14T18:45:39.525Z,31.70
2018-07-14T18:48:08.124Z,31.20
2018-07-14T18:50:36.693Z,30.60
2018-07-14T18:53:05.497Z,30.10
2018-07-14T18:55:34.105Z,29.70
2018-07-14T18:58:02.770Z,29.40
2018-07-14T19:00:31.398Z,29.20
2018-07-14T19:03:00.017Z,29.10
2018-07-14T19:05:28.699Z,28.70
2018-07-14T19:07:57.271Z,28.40
2018-07-14T19:10:25.831Z,28.20
2018-07-14T19:12:54.429Z,28.10
2018-07-14T19:15:23.123Z,28.00
2018-07-14T19:17:51.610Z,28.00
2018-07-14T19:20:20.205Z,27.90
2018-07-14T19:22:48.775Z,27.90
2018-07-14T19:25:17.306Z,27.70
2018-07-14T19:27:45.953Z,27.40
2018-07-14T19:30:14.630Z,27.10
2018-07-14T19:32:43.181Z,26.90
2018-07-14T19:35:11.822Z,26.60
2018-07-14T19:37:40.517Z,26.50
2018-07-14T19:40:09.177Z,26.30
2018-07-14T19:42:37.789Z,26.10
2018-07-14T19:45:06.509Z,25.90
2018-07-14T19:47:35.138Z,25.80
2018-07-14T19:50:03.726Z,25.80
2018-07-14T19:52:32.312Z,25.70
2018-07-14T19:55:00.909Z,25.60
2018-07-14T19:57:29.472Z,25.60
2018-07-14T19:59:58.132Z,25.40
2018-07-14T20:02:26.671Z,25.30
2018-07-14T20:04:55.524Z,25.10
2018-07-14T20:07:24.255Z,25.00
2018-07-14T20:09:52.855Z,24.80
2018-07-14T20:12:21.552Z,24.70
2018-07-14T20:14:50.176Z,24.60
2018-07-14T20:17:18.800Z,24.50
2018-07-14T20:19:47.643Z,24.40
2018-07-14T20:22:16.254Z,24.30
2018-07-14T20:24:45.132Z,24.20
2018-07-14T20:27:14.120Z,24.20
2018-07-14T20:29:42.754Z,24.10
2018-07-14T20:32:11.453Z,23.90
2018-07-14T20:34:40.202Z,23.70
2018-07-14T20:37:08.933Z,23.60
2018-07-14T20:39:37.541Z,23.40
2018-07-14T20:42:06.147Z,23.20
2018-07-14T20:44:34.804Z,23.20
2018-07-14T20:47:03.474Z,23.10
2018-07-14T20:49:32.227Z,23.10
2018-07-14T20:52:00.960Z,23.00
2018-07-14T20:54:29.613Z,22.90
2018-07-14T20:56:58.276Z,22.80
2018-07-14T20:59:27.133Z,22.60
2018-07-14T21:01:55.783Z,22.50
2018-07-14T21:04:24.412Z,22.40
2018-07-14T21:06:53.056Z,22.30
2018-07-14T21:09:21.734Z,22.20
2018-07-14T21:11:50.417Z,22.10
2018-07-14T21:14:19.102Z,22.00
2018-07-14T21:16:52.420Z,21.70
2018-07-14T21:19:21.067Z,21.60
2018-07-14T21:21:49.998Z,21.50
2018-07-14T21:24:18.994Z,21.50
2018-07-14T21:26:48.041Z,21.50
2018-07-14T21:29:17.061Z,21.50
2018-07-14T21:31:45.804Z,21.50
2018-07-14T21:34:14.465Z,21.50
2018-07-14T21:36:43.084Z,21.40
2018-07-14T21:39:11.684Z,21.30
2018-07-14T21:41:40.437Z,21.20
2018-07-14T21:44:09.131Z,21.10
2018-07-14T21:46:37.750Z,21.10
2018-07-14T21:49:06.590Z,21.00
2018-07-14T21:51:35.215Z,20.90
2018-07-14T21:54:03.970Z,20.90
2018-07-14T21:56:32.628Z,20.90
2018-07-14T21:59:01.521Z,20.90
2018-07-14T22:01:31.381Z,20.80
2018-07-14T22:04:00.495Z,20.70
2018-07-14T22:06:29.186Z,20.50
2018-07-14T22:08:58.003Z,20.40
2018-07-14T22:11:26.845Z,20.30
2018-07-14T22:14:07.064Z,20.20
2018-07-14T22:16:35.671Z,20.20
2018-07-14T22:19:04.478Z,20.10
2018-07-14T22:21:33.127Z,20.00
2018-07-14T22:24:01.786Z,19.90
2018-07-14T22:26:30.625Z,19.90
2018-07-14T22:28:59.500Z,19.90
2018-07-14T22:31:28.731Z,19.90
2018-07-14T22:33:57.475Z,19.90
2018-07-14T22:36:26.187Z,19.90
2018-07-14T22:38:54.834Z,19.90
2018-07-14T22:41:23.483Z,19.90
2018-07-14T22:43:52.159Z,19.90
2018-07-14T22:46:20.764Z,19.80
2018-07-14T22:48:49.472Z,19.80
2018-07-14T22:51:18.059Z,19.80
2018-07-14T22:53:46.730Z,19.80
2018-07-14T22:56:15.357Z,19.70
2018-07-14T22:58:43.997Z,19.70
2018-07-14T23:01:12.606Z,19.60
2018-07-14T23:03:41.229Z,19.50
2018-07-14T23:06:09.837Z,19.40
2018-07-14T23:08:38.472Z,19.30
2018-07-14T23:11:07.295Z,19.10
2018-07-14T23:13:35.956Z,19.10
2018-07-14T23:16:04.796Z,19.10
2018-07-14T23:18:33.521Z,19.10
2018-07-14T23:21:02.175Z,19.10
2018-07-14T23:23:30.780Z,19.00
2018-07-14T23:25:59.670Z,18.90
2018-07-14T23:28:28.361Z,18.90
2018-07-14T23:30:57.075Z,18.90
2018-07-14T23:33:25.738Z,18.80
2018-07-14T23:35:54.398Z,18.70
2018-07-14T23:38:23.056Z,18.60
2018-07-14T23:40:51.753Z,18.70
2018-07-14T23:43:20.337Z,18.70
2018-07-14T23:45:49.019Z,18.80
2018-07-14T23:48:17.730Z,18.80
2018-07-14T23:50:46.468Z,18.70
2018-07-14T23:53:15.164Z,18.70
2018-07-14T23:55:43.756Z,18.70
2018-07-14T23:58:12.488Z,18.60
